createdAt,value
2018-07-02T00:00:28.906Z,20.09
2018-07-02T00:02:58.451Z,20.01
2018-07-02T00:06:47.320Z,19.97
2018-07-02T00:09:16.612Z,19.91
2018-07-02T00:11:45.951Z,19.89
2018-07-02T00:14:16.327Z,19.86
2018-07-02T00:16:45.590Z,19.86
2018-07-02T00:19:14.837Z,19.77
2018-07-02T00:21:44.177Z,19.88
2018-07-02T00:24:13.559Z,19.76
2018-07-02T00:26:42.841Z,19.67
2018-07-02T00:29:12.139Z,19.70
2018-07-02T00:31:41.414Z,19.63
2018-07-02T00:34:10.681Z,19.64
2018-07-02T00:36:39.973Z,19.50
2018-07-02T00:39:11.972Z,19.52
2018-07-02T00:41:41.942Z,19.46
2018-07-02T00:44:11.534Z,19.39
2018-07-02T00:46:40.819Z,19.35
2018-07-02T00:49:10.130Z,19.41
2018-07-02T00:51:39.400Z,19.55
2018-07-02T00:54:08.702Z,19.34
2018-07-02T00:56:38.013Z,19.42
2018-07-02T00:59:07.372Z,19.31
2018-07-02T01:01:36.780Z,19.10
2018-07-02T01:04:06.109Z,19.09
2018-07-02T01:06:35.411Z,19.07
2018-07-02T01:09:07.563Z,18.96
2018-07-02T01:11:37.091Z,18.99
2018-07-02T01:14:06.877Z,18.88
2018-07-02T01:16:36.139Z,18.88
2018-07-02T01:19:08.402Z,18.78
2018-07-02T01:21:37.746Z,18.73
2018-07-02T01:24:07.035Z,18.64
2018-07-02T01:26:36.166Z,18.71
2018-07-02T01:29:05.481Z,18.60
2018-07-02T01:31:34.742Z,18.65
2018-07-02T01:34:04.216Z,18.55
2018-07-02T01:36:33.532Z,18.63
2018-07-02T01:39:02.824Z,18.58
2018-07-02T01:41:32.110Z,18.62
2018-07-02T01:44:01.439Z,18.44
2018-07-02T01:46:30.767Z,18.42
2018-07-02T01:49:00.092Z,18.33
2018-07-02T01:51:29.381Z,18.26
2018-07-02T01:53:58.702Z,18.17
2018-07-02T01:56:27.792Z,18.31
2018-07-02T01:58:57.188Z,18.17
2018-07-02T02:01:26.546Z,18.13
2018-07-02T02:03:55.921Z,18.13
2018-07-02T02:06:25.297Z,18.30
2018-07-02T02:08:54.765Z,18.12
2018-07-02T02:11:24.103Z,18.13
2018-07-02T02:13:53.834Z,18.12
2018-07-02T02:16:23.485Z,18.09
2018-07-02T02:18:52.788Z,18.04
2018-07-02T02:21:22.072Z,17.95
2018-07-02T02:23:51.391Z,17.93
2018-07-02T02:26:20.650Z,17.86
2018-07-02T02:28:50.058Z,17.85
2018-07-02T02:31:19.333Z,17.79
2018-07-02T02:33:48.685Z,17.69
2018-07-02T02:36:18.099Z,17.61
2018-07-02T02:38:47.371Z,17.58
2018-07-02T02:41:16.692Z,17.49
2018-07-02T02:43:46.149Z,17.39
2018-07-02T02:46:15.469Z,17.33
2018-07-02T02:48:44.944Z,17.28
2018-07-02T02:51:14.359Z,17.16
2018-07-02T02:53:43.700Z,17.06
2018-07-02T02:56:13.131Z,16.97
2018-07-02T02:58:42.451Z,16.95
2018-07-02T03:01:11.769Z,16.90
2018-07-02T03:03:41.270Z,16.94
2018-07-02T03:06:10.611Z,16.83
2018-07-02T03:08:39.872Z,16.80
2018-07-02T03:11:09.224Z,16.74
2018-07-02T03:13:38.539Z,16.86
2018-07-02T03:16:07.915Z,16.83
2018-07-02T03:18:37.188Z,16.71
2018-07-02T03:21:06.658Z,16.69
2018-07-02T03:23:35.929Z,16.73
2018-07-02T03:26:05.333Z,16.74
2018-07-02T03:28:34.682Z,16.72
2018-07-02T03:31:04.312Z,16.79
2018-07-02T03:33:33.772Z,16.76
2018-07-02T03:36:03.236Z,16.76
2018-07-02T03:38:32.687Z,16.75
2018-07-02T03:41:01.997Z,16.63
2018-07-02T03:43:31.295Z,16.62
2018-07-02T03:46:00.687Z,16.72
2018-07-02T03:48:30.010Z,16.62
2018-07-02T03:50:59.385Z,16.58
2018-07-02T03:53:28.652Z,16.82
2018-07-02T03:55:57.928Z,16.70
2018-07-02T03:58:27.342Z,16.60
2018-07-02T04:00:56.750Z,16.63
2018-07-02T04:03:26.054Z,16.66
2018-07-02T04:05:55.325Z,16.58
2018-07-02T04:08:24.931Z,16.65
2018-07-02T04:10:54.317Z,16.65
2018-07-02T04:13:23.639Z,16.87
2018-07-02T04:15:53.056Z,16.83
2018-07-02T04:18:22.383Z,17.11
2018-07-02T04:20:51.785Z,16.92
2018-07-02T04:23:21.091Z,18.12
2018-07-02T04:25:50.396Z,19.31
2018-07-02T04:28:19.730Z,19.64
2018-07-02T04:30:49.098Z,19.80
2018-07-02T04:33:18.409Z,19.40
2018-07-02T04:35:47.850Z,19.04
2018-07-02T04:38:17.142Z,18.73
2018-07-02T04:40:46.499Z,18.35
2018-07-02T04:43:15.798Z,18.28
2018-07-02T04:45:45.114Z,18.18
2018-07-02T04:48:14.556Z,17.88
2018-07-02T04:50:44.040Z,17.82
2018-07-02T04:53:13.473Z,17.83
2018-07-02T04:55:42.901Z,17.74
2018-07-02T04:58:12.294Z,17.86
2018-07-02T05:00:41.589Z,17.92
2018-07-02T05:03:10.842Z,18.18
2018-07-02T05:05:40.142Z,18.29
2018-07-02T05:08:09.471Z,18.38
2018-07-02T05:10:38.762Z,18.35
2018-07-02T05:13:08.041Z,18.50
2018-07-02T05:15:37.532Z,18.50
2018-07-02T05:18:06.682Z,18.68
2018-07-02T05:20:36.013Z,18.77
2018-07-02T05:23:05.437Z,18.88
2018-07-02T05:25:34.771Z,19.10
2018-07-02T05:28:04.046Z,19.33
2018-07-02T05:30:33.373Z,19.47
2018-07-02T05:33:02.787Z,19.66
2018-07-02T05:35:32.189Z,19.92
2018-07-02T05:38:01.534Z,20.24
2018-07-02T05:40:30.917Z,20.37
2018-07-02T05:43:00.263Z,20.62
2018-07-02T05:45:29.801Z,20.72
2018-07-02T05:47:59.428Z,20.74
2018-07-02T05:50:28.910Z,20.84
2018-07-02T05:52:58.308Z,21.12
2018-07-02T05:55:27.690Z,21.29
2018-07-02T05:57:57.207Z,21.49
2018-07-02T06:00:26.902Z,21.39
2018-07-02T06:02:56.218Z,21.48
2018-07-02T06:05:25.706Z,21.71
2018-07-02T06:07:55.508Z,21.77
2018-07-02T06:10:25.114Z,22.04
2018-07-02T06:12:54.856Z,22.43
2018-07-02T06:15:24.163Z,22.47
2018-07-02T06:17:53.527Z,22.78
2018-07-02T06:20:22.947Z,22.92
2018-07-02T06:22:52.346Z,23.07
2018-07-02T06:25:21.616Z,22.89
2018-07-02T06:27:51.090Z,23.29
2018-07-02T06:30:20.389Z,23.55
2018-07-02T06:32:49.818Z,23.82
2018-07-02T06:35:19.118Z,23.91
2018-07-02T06:37:48.530Z,24.21
2018-07-02T06:40:17.858Z,24.14
2018-07-02T06:42:47.163Z,24.80
2018-07-02T06:45:16.571Z,25.05
2018-07-02T06:47:45.987Z,24.63
2018-07-02T06:50:15.280Z,24.69
2018-07-02T06:52:44.606Z,25.36
2018-07-02T06:55:13.913Z,25.78
2018-07-02T06:57:43.292Z,26.06
2018-07-02T07:00:12.739Z,26.21
2018-07-02T07:02:42.146Z,26.12
2018-07-02T07:05:11.563Z,26.76
2018-07-02T07:07:41.011Z,27.09
2018-07-02T07:10:10.418Z,27.31
2018-07-02T07:12:39.731Z,27.32
2018-07-02T07:15:09.024Z,27.51
2018-07-02T07:17:38.318Z,27.82
2018-07-02T07:20:07.789Z,27.94
2018-07-02T07:22:37.129Z,27.87
2018-07-02T07:25:06.410Z,28.25
2018-07-02T07:27:35.813Z,28.21
2018-07-02T07:30:05.868Z,28.52
2018-07-02T07:32:35.245Z,28.23
2018-07-02T07:35:04.541Z,28.31
2018-07-02T07:37:33.837Z,27.42
2018-07-02T07:40:03.173Z,28.79
2018-07-02T07:42:32.657Z,28.57
2018-07-02T07:45:01.970Z,29.19
2018-07-02T07:47:31.351Z,29.44
2018-07-02T07:50:00.643Z,29.32
2018-07-02T07:52:30.011Z,29.97
2018-07-02T07:54:59.399Z,29.71
2018-07-02T07:57:28.814Z,30.27
2018-07-02T07:59:58.178Z,29.58
2018-07-02T08:02:28.641Z,29.82
2018-07-02T08:04:58.062Z,29.93
2018-07-02T08:07:28.532Z,29.08
2018-07-02T08:09:57.918Z,30.19
2018-07-02T08:12:27.503Z,30.77
2018-07-02T08:14:56.801Z,29.87
2018-07-02T08:17:26.365Z,30.73
2018-07-02T08:19:55.740Z,30.16
2018-07-02T08:22:25.218Z,30.01
2018-07-02T08:24:54.765Z,30.94
2018-07-02T08:27:24.216Z,31.19
2018-07-02T08:29:53.511Z,30.90
2018-07-02T08:32:22.947Z,31.59
2018-07-02T08:34:52.289Z,31.40
2018-07-02T08:37:21.594Z,31.81
2018-07-02T08:39:50.849Z,31.10
2018-07-02T08:42:20.181Z,29.57
2018-07-02T08:44:49.603Z,30.57
2018-07-02T08:47:18.937Z,30.98
2018-07-02T08:49:48.213Z,31.85
2018-07-02T08:52:17.716Z,31.48
2018-07-02T08:54:47.022Z,32.10
2018-07-02T08:57:16.427Z,30.84
2018-07-02T08:59:45.743Z,31.28
2018-07-02T09:02:15.122Z,31.05
2018-07-02T09:04:44.705Z,30.72
2018-07-02T09:07:14.033Z,31.25
2018-07-02T09:09:43.319Z,31.73
2018-07-02T09:12:12.688Z,32.00
2018-07-02T09:14:42.091Z,31.37
2018-07-02T09:17:11.316Z,32.34
2018-07-02T09:19:40.601Z,32.32
2018-07-02T09:22:10.024Z,32.57
2018-07-02T09:24:39.406Z,32.58
2018-07-02T09:27:08.650Z,32.86
2018-07-02T09:29:38.019Z,32.81
2018-07-02T09:32:07.281Z,32.36
2018-07-02T09:34:36.617Z,32.02
2018-07-02T09:37:06.433Z,31.90
2018-07-02T09:39:35.682Z,31.59
2018-07-02T09:42:04.965Z,31.15
2018-07-02T09:44:34.255Z,30.91
2018-07-02T09:47:03.526Z,29.78
2018-07-02T09:49:32.823Z,29.88
2018-07-02T09:52:02.027Z,29.89
2018-07-02T09:54:32.268Z,28.89
2018-07-02T09:57:01.626Z,29.10
2018-07-02T09:59:31.015Z,29.18
2018-07-02T10:02:00.265Z,29.60
2018-07-02T10:04:29.543Z,30.44
2018-07-02T10:06:58.971Z,30.73
2018-07-02T10:09:28.425Z,30.73
2018-07-02T10:11:57.748Z,30.82
2018-07-02T10:14:27.215Z,30.62
2018-07-02T10:16:56.635Z,30.76
2018-07-02T10:19:26.314Z,30.91
2018-07-02T10:21:55.973Z,31.24
2018-07-02T10:24:25.541Z,31.46
2018-07-02T10:26:55.164Z,31.54
2018-07-02T10:29:24.954Z,32.06
2018-07-02T10:31:54.449Z,32.05
2018-07-02T10:34:23.969Z,31.49
2018-07-02T10:36:53.455Z,30.51
2018-07-02T10:39:22.949Z,31.80
2018-07-02T10:41:52.248Z,32.30
2018-07-02T10:44:21.731Z,31.54
2018-07-02T10:46:51.039Z,30.48
2018-07-02T10:49:20.459Z,30.65
2018-07-02T10:51:49.760Z,30.39
2018-07-02T10:54:19.149Z,30.61
2018-07-02T10:56:48.473Z,29.23
2018-07-02T10:59:17.777Z,29.48
2018-07-02T11:01:47.055Z,29.90
2018-07-02T11:04:16.445Z,30.31
2018-07-02T11:06:45.843Z,30.77
2018-07-02T11:09:15.249Z,30.57
2018-07-02T11:11:44.942Z,30.95
2018-07-02T11:14:14.289Z,31.38
2018-07-02T11:16:44.235Z,31.47
2018-07-02T11:19:13.699Z,31.16
2018-07-02T11:21:42.990Z,31.60
2018-07-02T11:24:12.794Z,32.21
2018-07-02T11:26:42.326Z,32.00
2018-07-02T11:29:11.915Z,32.53
2018-07-02T11:31:41.430Z,32.30
2018-07-02T11:34:10.788Z,32.15
2018-07-02T11:36:40.064Z,32.39
2018-07-02T11:39:11.550Z,32.51
2018-07-02T11:41:40.950Z,31.74
2018-07-02T11:44:10.501Z,31.99
2018-07-02T11:46:39.857Z,32.09
2018-07-02T11:49:09.248Z,31.83
2018-07-02T11:51:38.613Z,31.73
2018-07-02T11:54:07.952Z,31.02
2018-07-02T11:56:37.281Z,31.34
2018-07-02T11:59:06.766Z,30.82
2018-07-02T12:01:36.105Z,31.15
2018-07-02T12:04:05.480Z,31.20
2018-07-02T12:06:34.859Z,31.91
2018-07-02T12:09:06.120Z,32.13
2018-07-02T12:11:35.532Z,32.08
2018-07-02T12:14:05.132Z,32.63
2018-07-02T12:16:34.707Z,33.02
2018-07-02T12:19:04.012Z,32.92
2018-07-02T12:21:33.575Z,32.72
2018-07-02T12:24:03.122Z,32.51
2018-07-02T12:26:32.786Z,32.58
2018-07-02T12:29:02.221Z,32.51
2018-07-02T12:31:31.610Z,32.31
2018-07-02T12:34:00.927Z,32.76
2018-07-02T12:36:30.345Z,32.71
2018-07-02T12:38:59.758Z,31.82
2018-07-02T12:41:29.152Z,31.49
2018-07-02T12:43:58.525Z,32.24
2018-07-02T12:46:27.929Z,32.49
2018-07-02T12:48:57.706Z,32.28
2018-07-02T12:51:27.414Z,32.43
2018-07-02T12:53:56.805Z,32.76
2018-07-02T12:56:26.173Z,32.86
2018-07-02T12:58:55.782Z,33.12
2018-07-02T13:01:25.322Z,33.21
2018-07-02T13:03:54.636Z,33.42
2018-07-02T13:06:24.098Z,33.64
2018-07-02T13:08:53.612Z,33.47
2018-07-02T13:11:22.865Z,33.01
2018-07-02T13:13:52.147Z,33.35
2018-07-02T13:16:21.387Z,33.53
2018-07-02T13:18:50.650Z,33.40
2018-07-02T13:21:19.974Z,33.23
2018-07-02T13:23:49.212Z,32.49
2018-07-02T13:26:18.577Z,32.77
2018-07-02T13:28:47.939Z,32.50
2018-07-02T13:31:17.378Z,32.21
2018-07-02T13:33:46.677Z,32.69
2018-07-02T13:36:16.146Z,32.69
2018-07-02T13:38:45.380Z,32.69
2018-07-02T13:41:14.706Z,32.70
2018-07-02T13:43:44.002Z,32.93
2018-07-02T13:46:13.389Z,33.18
2018-07-02T13:48:42.840Z,32.44
2018-07-02T13:51:12.228Z,32.51
2018-07-02T13:53:41.446Z,32.67
2018-07-02T13:56:10.758Z,32.84
2018-07-02T13:58:40.187Z,32.58
2018-07-02T14:01:09.501Z,32.35
2018-07-02T14:03:38.735Z,32.11
2018-07-02T14:06:08.056Z,32.09
2018-07-02T14:08:37.367Z,31.76
2018-07-02T14:11:06.651Z,31.70
2018-07-02T14:13:37.019Z,31.80
2018-07-02T14:16:06.416Z,31.98
2018-07-02T14:18:35.783Z,31.90
2018-07-02T14:21:05.200Z,32.12
2018-07-02T14:23:34.476Z,31.72
2018-07-02T14:26:03.825Z,31.37
2018-07-02T14:28:33.083Z,31.53
2018-07-02T14:31:02.434Z,31.87
2018-07-02T14:33:31.705Z,31.85
2018-07-02T14:36:01.042Z,31.43
2018-07-02T14:38:30.383Z,31.76
2018-07-02T14:40:59.744Z,31.44
2018-07-02T14:43:29.101Z,31.12
2018-07-02T14:45:58.599Z,31.24
2018-07-02T14:48:27.963Z,30.61
2018-07-02T14:50:57.558Z,31.14
2018-07-02T14:53:26.972Z,31.04
2018-07-02T14:55:56.366Z,31.03
2018-07-02T14:58:25.788Z,30.63
2018-07-02T15:00:55.573Z,30.46
2018-07-02T15:03:25.181Z,30.53
2018-07-02T15:05:54.674Z,30.18
2018-07-02T15:08:24.091Z,30.28
2018-07-02T15:10:53.611Z,30.50
2018-07-02T15:13:22.918Z,29.79
2018-07-02T15:15:52.207Z,30.15
2018-07-02T15:18:21.598Z,30.45
2018-07-02T15:20:50.812Z,30.40
2018-07-02T15:23:20.211Z,30.14
2018-07-02T15:25:49.506Z,30.03
2018-07-02T15:28:18.907Z,29.72
2018-07-02T15:30:51.590Z,29.50
2018-07-02T15:33:20.968Z,29.55
2018-07-02T15:35:50.354Z,29.21
2018-07-02T15:38:19.655Z,29.09
2018-07-02T15:40:48.912Z,29.02
2018-07-02T15:43:18.340Z,28.96
2018-07-02T15:45:47.618Z,28.88
2018-07-02T15:48:17.107Z,29.04
2018-07-02T15:50:46.484Z,29.08
2018-07-02T15:53:16.806Z,29.14
2018-07-02T15:55:46.176Z,28.86
2018-07-02T15:58:15.669Z,28.79
2018-07-02T16:00:46.160Z,28.70
2018-07-02T16:03:16.593Z,28.38
2018-07-02T16:05:46.004Z,28.46
2018-07-02T16:08:15.484Z,28.51
2018-07-02T16:10:44.866Z,28.53
2018-07-02T16:13:14.274Z,28.48
2018-07-02T16:15:43.819Z,28.34
2018-07-02T16:18:13.238Z,28.26
2018-07-02T16:20:42.607Z,28.24
2018-07-02T16:23:11.891Z,27.91
2018-07-02T16:25:41.028Z,27.98
2018-07-02T16:28:10.528Z,27.96
2018-07-02T16:30:39.913Z,28.01
2018-07-02T16:33:09.460Z,27.82
2018-07-02T16:35:39.041Z,27.85
2018-07-02T16:38:08.297Z,27.79
2018-07-02T16:40:37.777Z,27.78
2018-07-02T16:43:08.178Z,27.70
2018-07-02T16:45:37.590Z,27.70
2018-07-02T16:48:07.532Z,27.68
2018-07-02T16:50:36.758Z,27.38
2018-07-02T16:53:06.271Z,27.50
2018-07-02T16:55:35.681Z,27.46
2018-07-02T16:58:04.992Z,27.36
2018-07-02T17:00:34.316Z,27.34
2018-07-02T17:03:03.686Z,27.26
2018-07-02T17:05:33.116Z,27.20
2018-07-02T17:08:02.434Z,27.30
2018-07-02T17:10:31.781Z,27.14
2018-07-02T17:13:01.065Z,27.16
2018-07-02T17:15:30.358Z,27.19
2018-07-02T17:17:59.750Z,27.18
2018-07-02T17:20:29.146Z,27.05
2018-07-02T17:22:58.555Z,27.04
2018-07-02T17:25:27.855Z,27.01
2018-07-02T17:27:57.242Z,26.97
2018-07-02T17:30:26.640Z,26.95
2018-07-02T17:32:56.123Z,26.95
2018-07-02T17:35:25.779Z,26.83
2018-07-02T17:37:55.563Z,26.82
2018-07-02T17:40:24.917Z,26.69
2018-07-02T17:42:54.304Z,26.72
2018-07-02T17:45:23.600Z,26.68
2018-07-02T17:47:52.879Z,26.67
2018-07-02T17:50:22.181Z,26.63
2018-07-02T17:52:51.556Z,26.70
2018-07-02T17:55:20.609Z,26.63
2018-07-02T17:57:49.985Z,26.62
2018-07-02T18:00:19.264Z,26.59
2018-07-02T18:02:48.920Z,26.53
2018-07-02T18:05:18.410Z,26.45
2018-07-02T18:07:48.264Z,26.38
2018-07-02T18:10:17.537Z,26.29
2018-07-02T18:12:46.877Z,26.27
2018-07-02T18:15:16.415Z,26.26
2018-07-02T18:17:45.789Z,26.20
2018-07-02T18:20:15.146Z,26.25
2018-07-02T18:22:44.505Z,26.08
2018-07-02T18:25:13.847Z,26.11
2018-07-02T18:27:43.400Z,26.11
2018-07-02T18:30:12.815Z,26.05
2018-07-02T18:32:42.334Z,26.03
2018-07-02T18:35:11.650Z,25.92
2018-07-02T18:37:41.086Z,25.87
2018-07-02T18:40:10.364Z,25.88
2018-07-02T18:42:39.417Z,25.79
2018-07-02T18:45:08.801Z,25.73
2018-07-02T18:47:38.006Z,25.67
2018-07-02T18:50:07.429Z,25.61
2018-07-02T18:52:36.825Z,25.57
2018-07-02T18:55:06.409Z,25.50
2018-07-02T18:57:35.885Z,25.42
2018-07-02T19:00:06.061Z,25.43
2018-07-02T19:02:35.466Z,25.43
2018-07-02T19:05:06.207Z,25.35
2018-07-02T19:07:35.641Z,25.31
2018-07-02T19:10:05.881Z,25.29
2018-07-02T19:12:35.368Z,25.46
2018-07-02T19:15:04.786Z,25.71
2018-07-02T19:17:34.150Z,25.85
2018-07-02T19:20:03.605Z,26.64
2018-07-02T19:22:32.925Z,26.64
2018-07-02T19:25:05.695Z,26.26
2018-07-02T19:27:35.035Z,26.12
2018-07-02T19:30:04.481Z,25.66
2018-07-02T19:32:33.751Z,25.56
2018-07-02T19:35:03.082Z,25.41
2018-07-02T19:37:32.640Z,25.50
2018-07-02T19:40:02.010Z,25.64
2018-07-02T19:42:31.431Z,25.80
2018-07-02T19:45:01.234Z,25.91
2018-07-02T19:47:31.088Z,25.98
2018-07-02T19:50:00.498Z,25.66
2018-07-02T19:52:30.116Z,25.66
2018-07-02T19:54:59.472Z,25.46
2018-07-02T19:57:28.961Z,25.33
2018-07-02T19:59:58.501Z,25.15
2018-07-02T20:02:27.998Z,24.93
2018-07-02T20:04:57.229Z,24.90
2018-07-02T20:07:26.704Z,24.78
2018-07-02T20:09:56.058Z,24.85
2018-07-02T20:12:25.514Z,24.61
2018-07-02T20:14:55.659Z,24.66
2018-07-02T20:17:25.369Z,24.52
2018-07-02T20:19:54.855Z,24.25
2018-07-02T20:22:24.223Z,24.23
2018-07-02T20:24:53.778Z,23.94
2018-07-02T20:27:23.543Z,23.71
2018-07-02T20:29:52.949Z,23.62
2018-07-02T20:32:22.297Z,23.50
2018-07-02T20:34:51.724Z,23.37
2018-07-02T20:37:21.026Z,23.25
2018-07-02T20:39:50.415Z,23.27
2018-07-02T20:42:19.804Z,23.16
2018-07-02T20:44:49.182Z,23.14
2018-07-02T20:47:18.600Z,23.09
2018-07-02T20:49:47.948Z,23.11
2018-07-02T20:52:17.239Z,22.96
2018-07-02T20:54:46.642Z,23.20
2018-07-02T20:57:16.015Z,22.87
2018-07-02T20:59:45.481Z,22.85
2018-07-02T21:02:14.884Z,22.79
2018-07-02T21:04:44.216Z,22.76
2018-07-02T21:07:13.594Z,22.71
2018-07-02T21:09:43.009Z,22.58
2018-07-02T21:12:12.382Z,22.70
2018-07-02T21:14:41.685Z,22.49
2018-07-02T21:17:10.837Z,22.40
2018-07-02T21:19:40.252Z,22.45
2018-07-02T21:22:09.930Z,22.37
2018-07-02T21:24:39.284Z,22.24
2018-07-02T21:27:08.638Z,22.34
2018-07-02T21:29:38.091Z,22.25
2018-07-02T21:32:07.517Z,22.20
2018-07-02T21:34:37.014Z,22.12
2018-07-02T21:37:06.858Z,22.00
2018-07-02T21:39:36.186Z,22.16
2018-07-02T21:42:05.682Z,22.09
2018-07-02T21:44:35.086Z,22.25
2018-07-02T21:47:10.065Z,22.04
2018-07-02T21:49:40.164Z,21.99
2018-07-02T21:52:09.915Z,21.96
2018-07-02T21:54:39.326Z,21.87
2018-07-02T21:57:08.747Z,21.88
2018-07-02T21:59:38.237Z,22.09
2018-07-02T22:02:07.648Z,21.84
2018-07-02T22:04:37.268Z,21.65
2018-07-02T22:07:06.959Z,21.51
2018-07-02T22:09:36.241Z,21.45
2018-07-02T22:12:05.580Z,21.36
2018-07-02T22:14:34.897Z,21.26
2018-07-02T22:17:04.167Z,21.19
2018-07-02T22:19:33.533Z,21.15
2018-07-02T22:22:02.965Z,21.15
2018-07-02T22:24:32.213Z,21.05
2018-07-02T22:27:01.620Z,21.00
2018-07-02T22:29:30.945Z,21.01
2018-07-02T22:32:00.347Z,20.94
2018-07-02T22:34:31.051Z,20.87
2018-07-02T22:37:00.407Z,20.84
2018-07-02T22:39:29.793Z,20.82
2018-07-02T22:41:59.098Z,20.69
2018-07-02T22:44:28.417Z,20.76
2018-07-02T22:46:57.506Z,20.67
2018-07-02T22:49:26.939Z,20.66
2018-07-02T22:51:56.475Z,20.61
2018-07-02T22:54:25.851Z,20.63
2018-07-02T22:56:55.222Z,20.61
2018-07-02T22:59:24.612Z,20.63
2018-07-02T23:01:54.166Z,20.66
2018-07-02T23:04:23.525Z,20.62
2018-07-02T23:06:52.802Z,20.61
2018-07-02T23:09:22.278Z,20.56
2018-07-02T23:11:51.869Z,20.55
2018-07-02T23:14:21.125Z,20.56
2018-07-02T23:16:50.359Z,20.56
2018-07-02T23:19:19.651Z,20.64
2018-07-02T23:21:49.048Z,20.70
2018-07-02T23:24:18.282Z,20.72
2018-07-02T23:26:47.658Z,20.64
2018-07-02T23:29:16.939Z,20.49
2018-07-02T23:31:46.315Z,20.48
2018-07-02T23:34:15.755Z,20.58
2018-07-02T23:36:45.053Z,20.53
2018-07-02T23:39:14.758Z,20.43
2018-07-02T23:41:44.807Z,20.45
2018-07-02T23:44:14.054Z,20.37
2018-07-02T23:46:43.308Z,20.42
2018-07-02T23:49:12.343Z,20.46
2018-07-02T23:51:41.771Z,20.52
2018-07-02T23:54:11.061Z,20.48
2018-07-02T23:56:40.313Z,20.46
2018-07-02T23:59:09.585Z,20.45
